May 23, 2022

Time Code Weather Temp. Visibility Clouds Wind METAR/SPECI
9:20 am
V
66 °F 6¼ mi+ - Var   Var 2 kt METAR EDNY 230720Z VRB02KT CAVOK 19/14 Q1008
8:50 am
V
64 °F 6¼ mi+ - Var   Var 1 kt METAR EDNY 230650Z VRB01KT CAVOK 18/14 Q1008
8:20 am
V
59 °F 6¼ mi+ - 070°   070° 6 kt METAR EDNY 230620Z 07006KT CAVOK 15/12 Q1008
7:50 am
V
59 °F 6¼ mi+ - 050°   050° 3 kt METAR EDNY 230550Z 05003KT CAVOK 15/12 Q1008
7:20 am
V
59 °F 6¼ mi+ - 260°   260° 4 kt METAR EDNY 230520Z 26004KT 9999 -RA SCT053 15/13 Q1008
6:50 am
V
57 °F 6¼ mi+ - 070°   070° 3 kt METAR EDNY 230450Z 07003KT 9999 -RA SCT053 14/11 Q1008
6:20 am
V
57 °F 6¼ mi+ - Var   Var 3 kt METAR EDNY 230420Z VRB03KT CAVOK 14/11 Q1007
5:50 am
V
57 °F 6¼ mi+ - Var   Var 3 kt METAR EDNY 230350Z VRB03KT CAVOK 14/10 Q1008
5:20 am
V
57 °F 6¼ mi+ 12,000 ft 050°   050° 3 kt METAR EDNY 230320Z AUTO 05003KT 350V100 9999 BKN120/// 14/10 Q1008
4:50 am
V
57 °F 6¼ mi+ 12,000 ft Var   Var 2 kt METAR EDNY 230250Z AUTO VRB02KT 9999 BKN120/// BKN140/// BKN220/// 14/10 Q1008
4:20 am
V
59 °F 6¼ mi+ 13,000 ft 020°   020° 5 kt METAR EDNY 230220Z AUTO 02005KT 340V060 9999 BKN130/// 15/10 Q1008
3:50 am
V
59 °F 6¼ mi+ 13,000 ft 040°   040° 3 kt METAR EDNY 230150Z AUTO 04003KT 340V120 9999 BKN130/// 15/10 Q1008
3:20 am
V
57 °F 6¼ mi+ - 050°   050° 3 kt METAR EDNY 230120Z AUTO 05003KT 010V080 9999 FEW130/// 14/10 Q1009
2:50 am
V
59 °F 6¼ mi+ 15,000 ft 040°   040° 5 kt METAR EDNY 230050Z AUTO 04005KT 010V070 9999 FEW120/// BKN150/// 15/10 Q1009
2:20 am
V
57 °F 6¼ mi+ - Var   Var 2 kt METAR EDNY 230020Z AUTO VRB02KT 9999 NCD 14/10 Q1009
1:50 am
V
61 °F 6¼ mi+ - 020°   020° 4 kt METAR EDNY 222350Z AUTO 02004KT 350V060 9999 SCT120/// 16/10 Q1009
1:20 am
V
61 °F 6¼ mi+ - 020°   020° 6 kt METAR EDNY 222320Z AUTO 02006KT 330V050 9999 FEW120/// 16/09 Q1009
12:50 am
V
63 °F 6¼ mi+ - 020°   020° 5 kt METAR EDNY 222250Z AUTO 02005KT 350V050 9999 FEW120/// 17/10 Q1009
12:20 am
V
64 °F 6¼ mi+ - 020°   020° 6 kt METAR EDNY 222220Z AUTO 02006KT 340V050 9999 SCT120/// SCT140/// 18/11 Q1009

May 22, 2022

Time Code Weather Temp. Visibility Clouds Wind METAR/SPECI
11:50 pm
V
64 °F 6¼ mi+ - 020°   020° 6 kt METAR EDNY 222150Z AUTO 02006KT 350V060 9999 FEW130/// 18/10 Q1010
11:20 pm
V
66 °F 6¼ mi+ 13,000 ft 030°   030° 7 kt METAR EDNY 222120Z AUTO 03007KT 360V060 9999 BKN130/// 19/10 Q1010
10:50 pm
V
64 °F 6¼ mi+ 14,000 ft 040°   040° 5 kt METAR EDNY 222050Z AUTO 04005KT 9999 BKN140/// 18/10 Q1010
10:20 pm
V
63 °F 6¼ mi+ - 050°   050° 3 kt METAR EDNY 222020Z AUTO 05003KT 010V080 9999 FEW170/// 17/10 Q1011
9:50 pm
V
64 °F 6¼ mi+ - 060°   060° 4 kt METAR EDNY 221950Z 06004KT CAVOK 18/11 Q1011
9:20 pm
V
64 °F 6¼ mi+ - Var   Var 2 kt METAR EDNY 221920Z VRB02KT CAVOK 18/11 Q1011
8:50 pm
V
68 °F 6¼ mi+ - Var   Var 2 kt METAR EDNY 221850Z VRB02KT 9999 FEW048 20/11 Q1011
8:20 pm
V
72 °F 6¼ mi+ - Var   Var 3 kt METAR EDNY 221820Z VRB03KT CAVOK 22/12 Q1012
7:50 pm
V
70 °F 6¼ mi+ - Var   Var 2 kt METAR EDNY 221750Z VRB02KT CAVOK 21/15 Q1012
7:20 pm
V
70 °F 6¼ mi+ - Var   Var 2 kt METAR EDNY 221720Z VRB02KT CAVOK 21/15 Q1011
6:50 pm
V
73 °F 6¼ mi+ - 210°   210° 3 kt METAR EDNY 221650Z 21003KT CAVOK 23/12 Q1012
6:20 pm
V
73 °F 6¼ mi+ - 230°   230° 3 kt METAR EDNY 221620Z 23003KT CAVOK 23/13 Q1012
5:50 pm
V
72 °F 6¼ mi+ - 210°   210° 6 kt METAR EDNY 221550Z 21006KT CAVOK 22/12 Q1012
5:20 pm
V
73 °F 6¼ mi+ - 200°   200° 5 kt METAR EDNY 221520Z 20005KT CAVOK 23/13 Q1012
4:50 pm
V
73 °F 6¼ mi+ - 190°   190° 5 kt METAR EDNY 221450Z 19005KT CAVOK 23/12 Q1012
4:20 pm
V
72 °F 6¼ mi+ - 210°   210° 6 kt METAR EDNY 221420Z 21006KT CAVOK 22/13 Q1013
3:50 pm
V
73 °F 6¼ mi+ - 230°   230° 4 kt METAR EDNY 221350Z 23004KT CAVOK 23/15 Q1013
3:20 pm
V
73 °F 6¼ mi+ - 220°   220° 6 kt METAR EDNY 221320Z 22006KT CAVOK 23/14 Q1013
2:50 pm
V
73 °F 6¼ mi+ - 240°   240° 4 kt METAR EDNY 221250Z 24004KT CAVOK 23/13 Q1013
2:20 pm
V
72 °F 6¼ mi+ - 230°   230° 5 kt METAR EDNY 221220Z 23005KT CAVOK 22/13 Q1014
1:50 pm
V
72 °F 6¼ mi+ - Var   Var 3 kt METAR EDNY 221150Z VRB03KT CAVOK 22/14 Q1015
1:20 pm
V
70 °F 6¼ mi+ - Var   Var 3 kt METAR EDNY 221120Z VRB03KT CAVOK 21/14 Q1015
12:50 pm
V
66 °F 6¼ mi+ - 230°   230° 4 kt METAR EDNY 221050Z 23004KT CAVOK 19/14 Q1015
12:20 pm
V
66 °F 6¼ mi+ - 220°   220° 4 kt METAR EDNY 221020Z 22004KT CAVOK 19/13 Q1016
11:50 am
V
66 °F 6¼ mi+ - Var   Var 1 kt METAR EDNY 220950Z VRB01KT CAVOK 19/13 Q1016
11:20 am
V
64 °F 6¼ mi+ - Var   Var 2 kt METAR EDNY 220920Z VRB02KT CAVOK 18/12 Q1016
10:50 am
V
64 °F 6¼ mi+ - Var   Var 1 kt METAR EDNY 220850Z VRB01KT CAVOK 18/13 Q1016
10:20 am
V
63 °F 6¼ mi+ - Var   000° 0 kt METAR EDNY 220820Z 00000KT CAVOK 17/12 Q1017
9:50 am
V
63 °F 6¼ mi+ - Var   000° 0 kt METAR EDNY 220750Z 00000KT CAVOK 17/12 Q1017
9:20 am
V
61 °F 6¼ mi+ - Var   Var 1 kt METAR EDNY 220720Z VRB01KT CAVOK 16/11 Q1017
8:50 am
V
59 °F 6¼ mi+ - Var   Var 2 kt METAR EDNY 220650Z VRB02KT CAVOK 15/10 Q1017
8:20 am
V
57 °F 6¼ mi+ - 040°   040° 4 kt METAR EDNY 220620Z 04004KT CAVOK 14/10 Q1017
7:50 am
V
55 °F 6¼ mi+ - 040°   040° 5 kt METAR EDNY 220550Z 04005KT CAVOK 13/09 Q1017
7:20 am
V
54 °F 6¼ mi+ - 040°   040° 3 kt METAR EDNY 220520Z 04003KT CAVOK 12/09 Q1018
6:50 am
V
54 °F 6¼ mi+ - 040°   040° 4 kt METAR EDNY 220450Z AUTO 04004KT 9999 NCD 12/09 Q1018
6:20 am
V
52 °F 6¼ mi+ - 030°   030° 4 kt METAR EDNY 220420Z AUTO 03004KT 9999 NCD 11/09 Q1018
5:50 am
V
52 °F 6¼ mi+ - 040°   040° 3 kt METAR EDNY 220350Z AUTO 04003KT 9999 FEW250/// 11/09 Q1018
5:20 am
V
52 °F 6¼ mi+ - 050°   050° 3 kt METAR EDNY 220320Z AUTO 05003KT 010V080 9999 FEW250/// 11/09 Q1018
4:50 am
V
50 °F 6¼ mi+ - 060°   060° 4 kt METAR EDNY 220250Z AUTO 06004KT 9999 NCD 10/08 Q1018
4:20 am
V
52 °F 6¼ mi+ - 060°   060° 3 kt METAR EDNY 220220Z AUTO 06003KT 9999 NCD 11/09 Q1018
3:50 am
V
54 °F 6¼ mi+ - 060°   060° 4 kt METAR EDNY 220150Z AUTO 06004KT 9999 NCD 12/09 Q1018
3:20 am
V
54 °F 6¼ mi+ - 060°   060° 4 kt METAR EDNY 220120Z AUTO 06004KT 030V090 9999 NCD 12/09 Q1018
2:50 am
V
57 °F 6¼ mi+ - Var   Var 2 kt METAR EDNY 220050Z AUTO VRB02KT 9999 NCD 14/09 Q1018
2:20 am
V
57 °F 6¼ mi+ - Var   Var 3 kt METAR EDNY 220020Z AUTO VRB03KT 9999 NCD 14/09 Q1018
1:50 am
V
57 °F 6¼ mi+ - 030°   030° 4 kt METAR EDNY 212350Z AUTO 03004KT 350V080 9999 FEW070/// 14/10 Q1019
1:20 am
V
59 °F 6¼ mi+ - Var   Var 3 kt METAR EDNY 212320Z AUTO VRB03KT 9999 FEW069/// 15/10 Q1019
12:50 am
V
59 °F 6¼ mi+ - 040°   040° 3 kt METAR EDNY 212250Z AUTO 04003KT 330V070 9999 NCD 15/10 Q1019
12:20 am
V
61 °F 6¼ mi+ - 030°   030° 3 kt METAR EDNY 212220Z AUTO 03003KT 310V090 9999 NCD 16/10 Q1019

May 21, 2022

Time Code Weather Temp. Visibility Clouds Wind METAR/SPECI
11:50 pm
V
61 °F 6¼ mi+ - 040°   040° 5 kt METAR EDNY 212150Z AUTO 04005KT 350V090 9999 NCD 16/11 Q1019
11:20 pm
V
61 °F 6¼ mi+ - 030°   030° 4 kt METAR EDNY 212120Z AUTO 03004KT 330V090 9999 NCD 16/10 Q1019
10:50 pm
V
63 °F 6¼ mi+ - Var   Var 2 kt METAR EDNY 212050Z AUTO VRB02KT 9999 NCD 17/09 Q1019
10:20 pm
V
63 °F 6¼ mi+ - 050°   050° 3 kt METAR EDNY 212020Z AUTO 05003KT 9999 NCD 17/13 Q1019
9:50 pm
V
63 °F 6¼ mi+ - Var   Var 2 kt METAR EDNY 211950Z VRB02KT CAVOK 17/15 Q1019
9:20 pm
V
63 °F 6¼ mi+ - Var   Var 2 kt METAR EDNY 211920Z VRB02KT CAVOK 17/15 Q1019
8:50 pm
V
70 °F 6¼ mi+ - 030°   030° 3 kt METAR EDNY 211850Z 03003KT CAVOK 21/14 Q1019
8:20 pm
V
70 °F 6¼ mi+ - Var   Var 2 kt METAR EDNY 211820Z VRB02KT CAVOK 21/15 Q1019
7:50 pm
V
73 °F 6¼ mi+ - Var   Var 2 kt METAR EDNY 211750Z VRB02KT CAVOK 23/13 Q1019
7:20 pm
V
72 °F 6¼ mi+ - 100°   100° 4 kt METAR EDNY 211720Z 10004KT CAVOK 22/14 Q1019
6:50 pm
V
72 °F 6¼ mi+ - 140°   140° 4 kt METAR EDNY 211650Z 14004KT CAVOK 22/14 Q1020
6:20 pm
V
72 °F 6¼ mi+ - 160°   160° 3 kt METAR EDNY 211620Z 16003KT CAVOK 22/13 Q1020
5:50 pm
V
72 °F 6¼ mi+ - Var   Var 2 kt METAR EDNY 211550Z VRB02KT CAVOK 22/14 Q1021
5:20 pm
V
72 °F 6¼ mi+ - 210°   210° 4 kt METAR EDNY 211520Z 21004KT CAVOK 22/13 Q1021
4:50 pm
V
72 °F 6¼ mi+ - 240°   240° 4 kt METAR EDNY 211450Z 24004KT CAVOK 22/13 Q1021
4:20 pm
V
72 °F 6¼ mi+ - 230°   230° 5 kt METAR EDNY 211420Z 23005KT CAVOK 22/13 Q1022
3:50 pm
V
72 °F 6¼ mi+ - 210°   210° 6 kt METAR EDNY 211350Z 21006KT CAVOK 22/13 Q1022
3:20 pm
V
70 °F 6¼ mi+ - 230°   230° 5 kt METAR EDNY 211320Z 23005KT 200V260 CAVOK 21/13 Q1022
2:50 pm
V
70 °F 6¼ mi+ - 200°   200° 5 kt METAR EDNY 211250Z 20005KT 9999 FEW025 21/13 Q1022
2:20 pm
V
70 °F 6¼ mi+ - 230°   230° 5 kt METAR EDNY 211220Z 23005KT 9999 FEW025 21/12 Q1022
1:50 pm
V
68 °F 6¼ mi+ 6,000 ft 190°   190° 5 kt METAR EDNY 211150Z 19005KT 9999 FEW027 BKN060 20/11 Q1023
1:20 pm
V
68 °F 6¼ mi+ 5,300 ft 250°   250° 4 kt METAR EDNY 211120Z 25004KT 9999 FEW025 BKN053 20/14 Q1023
12:50 pm
V
68 °F 6¼ mi+ 5,300 ft Var   Var 2 kt METAR EDNY 211050Z VRB02KT 9999 FEW027 BKN053 20/13 Q1023
12:20 pm
V
66 °F 6¼ mi+ 5,200 ft 210°   210° 3 kt METAR EDNY 211020Z 21003KT 9999 FEW026 BKN052 BKN059 19/13 Q1023
11:50 am
V
66 °F 6¼ mi+ 5,200 ft 260°   260° 4 kt METAR EDNY 210950Z 26004KT 9999 BKN052 19/13 Q1023
11:20 am
V
64 °F 6¼ mi+ - 250°   250° 3 kt METAR EDNY 210920Z 25003KT 9999 FEW027 SCT053 18/13 Q1024
10:50 am
V
64 °F 6¼ mi+ 5,400 ft Var   Var 2 kt METAR EDNY 210850Z VRB02KT 9999 BKN054 18/12 Q1024
10:20 am
V
64 °F 6¼ mi+ 5,600 ft Var   Var 2 kt METAR EDNY 210820Z VRB02KT 9999 FEW023 BKN056 18/12 Q1024
9:50 am
V
64 °F 6¼ mi+ - Var   Var 1 kt METAR EDNY 210750Z VRB01KT 9999 FEW024 SCT056 18/13 Q1024
9:20 am
V
63 °F 6¼ mi+ - 270°   270° 3 kt METAR EDNY 210720Z 27003KT 9999 SCT025 17/13 Q1024
Older data

Download our app

Easy access to all aviation weather on your mobile phone and tablet.
With many features not available on the website, like offline support and a personal airport list.

We and third parties follow your internet behavior on our website with cookies. If you continue, we assume you agree with our cookie policy. Learn more